KSDL

Scottsdale Airport

Scottsdale, Arizona, USA
METAR KSDL 231053Z AUTO 10004KT 10SM CLR 21/03 A2986 RMK AO2 SLP088 T02060028
Observed Flight Rules
May-23 @ 10:53 UTC (17 minutes ago) Visual Flight Rules
Wind Visibility Clouds
100° at 4 knots 10 miles
  • Clear skies
Temperatures Readings
Current 21°C / 70°F
Dewpoint 3°C / 37°F
Humidity 31%
Altimeter 29.86" Hg
Pressure 1008.8 hPa
Elevation 447
METAR KSDL 231053Z AUTO 10004KT 10SM CLR 21/03 A2986 RMK AO2 SLP088 T02060028
Observed Flight Rules
May-23 @ 10:53 UTC
(17 minutes ago)
VFR
Wind Visibility
100° at 4 knots 10 miles
Clouds
  • Clear skies
Temperature Dewpoint
21°C / 70°F 3°C / 37°F
Humidity Altimeter Pressure
31% 29.86" Hg 1008.8 hPa